Berwick, LA (70342)

10:17 AM CDT on July 31, 2014 (GMT -0500)
North Berwick Station (KLABERWI2) Elev 0 ft | 29.72 °N, 91.24 °W | Change Station

Current weather conditions updated 4 seconds ago

Clear
Clear
83.1 °F
Feels Like 90 °F
N
1.0
Wind Variable Wind from ENE
Gusts 5.0 mph

Today is forecast to be nearly the same temperature as yesterday.

Today
High -- | Low -- °F
--% Chance of Precip.
Yesterday
High -- | Low -- °F
Precip. -- in
6:23 AM 7:58 PM
Waxing Crescent, 19% visible
Pressure 30.07 in
Visibility 10.0 miles
Clouds Clear
Heat Index 90 °F
Dew Point 74 °F
Humidity 74%
Rainfall 0.00 in
Snow Depth Not available.
UV 3.3 out of 12
Pollen 3.00 out of 12
Air Quality Not available.
Flu Activity Not available.
METAR KPTN 311455Z AUTO 08006KT 10SM CLR 27/21 A3007 RMK AO1 52010

More Conditions Fewer Conditions

Pressure 30.07 in
Visibility 10.0 miles
Clouds Clear
Heat Index 90 °F
Dew Point 74 °F
Humidity 74%
Rainfall 0.00 in
Snow Depth Not available.
UV 3.3 out of 12
Pollen 3.00 out of 12
Air Quality Not available.
Flu Activity Not available.
METAR KPTN 311455Z AUTO 08006KT 10SM CLR 27/21 A3007 RMK AO1 52010

More Conditions Fewer Conditions

10-Day Weather Forecast

Almanac

Astronomy

Jul. 31, 2014 Rise Set
Actual Time 6:23 AM CDT 7:58 PM CDT
Civil Twilight 5:57 AM CDT 8:24 PM CDT
Nautical Twilight 5:26 AM CDT 8:55 PM CDT
Astronomical Twilight 4:54 AM CDT 9:27 PM CDT
Moon 10:28 AM CDT 10:36 PM CDT
Length of Visible Light 14h 26m
Length of Day
13h 34m
Tomorrow will be 1m 19s shorter.
Waxing Crescent, 19% of the Moon is Illuminated
Today
Waxing Crescent
Aug 3
First Quarter
Aug 10
Full
Aug 17
Last Quarter
Aug 25
New

Today's Extremes

State Highs State Lows

Community

WunderPhotos

Upload Photos

1,739,352 photos uploaded!

Nearby

Snow Depth

Station Depth Elevation
No new snow has been reported.

Earthquake Activity

City Distance Mag. Time & Date
No recent earthquake activity has been reported nearby.
Minimum magnitude displayed is 2.5.

Coastal Water Temperatures

Place Temperature
Amerada Pass, LA 82.9 °F
Fresh Water Canal Locks, LA 84.9 °F

Nearby Weather Stations

Station Location Temp. Heat Index Dew Point Humidity Wind Precip. Elev Updated Type
North Berwick Station, Berwick, LA 83.1 °F 90 °F 74 °F 74% ENE  at  1.0 mph 0.00 in / hr 0 ft 10:17 AM CDT Rapid Fire
plattenville, Napoleonville, LA 82.6 °F 87 °F 71 °F 69% NNE  at  2.7 mph - / hr 23 ft 10:12 AM CDT Normal
USDA Sugarcane Research Unit, Schriever, LA 84.9 °F 89 °F 69 °F 59% ENE  at  5.0 mph 0.00 in / hr 13 ft 10:17 AM CDT Rapid Fire
Jerry's House (Schriever), Thibodaux, LA 82.5 °F 86 °F 70 °F 66% East  at  4.0 mph 0.00 in / hr 11 ft 10:16 AM CDT Normal

Show More Stations Show Fewer Stations